Time;durP1;ratioP1;P1;durP2;ratioP2;P2;SDS_P1;SDS_P2;PMS_P1;PMS_P2;Temp;Humidity;BMP_temperature;BMP_pressure;BME280_temperature;BME280_humidity;BME280_pressure;Samples;Min_cycle;Max_cycle;Signal;HPM_P1;HPM_P2
2023/07/04 00:00:30;;;;;;;9.88;1.85;;;15.50;95.50;;;;;;5053463;28;20473;-45
2023/07/04 00:02:57;;;;;;;10.20;2.33;;;15.50;95.50;;;;;;5053155;28;20057;-50
2023/07/04 00:05:24;;;;;;;10.25;2.90;;;15.50;95.50;;;;;;5047296;28;20069;-52
2023/07/04 00:07:51;;;;;;;9.50;2.78;;;15.50;95.70;;;;;;5047120;28;20404;-50
2023/07/04 00:10:20;;;;;;;12.10;2.35;;;15.50;95.80;;;;;;5047462;28;20476;-51
2023/07/04 00:12:46;;;;;;;8.07;2.20;;;15.40;95.90;;;;;;5046452;28;20468;-49
2023/07/04 00:15:13;;;;;;;9.30;2.22;;;15.40;96.00;;;;;;5046869;28;20048;-50
2023/07/04 00:17:42;;;;;;;13.90;2.53;;;15.40;96.20;;;;;;5046978;28;20064;-50
2023/07/04 00:20:09;;;;;;;8.73;2.25;;;15.40;96.20;;;;;;5046924;28;20032;-48
2023/07/04 00:22:36;;;;;;;11.55;2.78;;;15.40;96.20;;;;;;5053021;28;20487;-47
2023/07/04 00:25:04;;;;;;;11.57;2.15;;;15.40;96.30;;;;;;5053152;28;20045;-49
2023/07/04 00:27:32;;;;;;;7.53;2.10;;;15.40;96.30;;;;;;5046900;28;20040;-50
2023/07/04 00:29:59;;;;;;;7.82;2.58;;;15.40;96.30;;;;;;5051795;28;20043;-47
2023/07/04 00:32:26;;;;;;;8.80;2.10;;;15.40;96.30;;;;;;5053030;28;20047;-49
2023/07/04 00:34:53;;;;;;;9.63;2.33;;;15.30;96.30;;;;;;5053125;28;20039;-47
2023/07/04 00:37:21;;;;;;;8.73;2.22;;;15.30;96.30;;;;;;5051775;28;20080;-48
2023/07/04 00:39:48;;;;;;;8.40;1.60;;;15.30;96.40;;;;;;5052074;28;20492;-50
2023/07/04 00:42:15;;;;;;;9.77;2.13;;;15.30;96.30;;;;;;5052593;28;20379;-45
2023/07/04 00:44:47;;;;;;;7.03;1.80;;;15.30;96.40;;;;;;5051529;28;20495;-49
2023/07/04 00:47:21;;;;;;;9.20;1.90;;;15.30;96.40;;;;;;5046889;28;20037;-48
2023/07/04 00:49:49;;;;;;;9.88;2.35;;;15.20;96.40;;;;;;5051682;28;20064;-47
2023/07/04 00:52:16;;;;;;;7.50;2.00;;;15.20;96.50;;;;;;5052724;28;20033;-47
2023/07/04 00:54:43;;;;;;;8.30;1.98;;;15.20;96.50;;;;;;5052650;28;20072;-51
2023/07/04 00:57:10;;;;;;;8.85;2.15;;;15.20;96.60;;;;;;5051458;28;20045;-47
2023/07/04 00:59:38;;;;;;;9.82;2.00;;;15.20;96.60;;;;;;5053171;28;20143;-50
2023/07/04 01:02:05;;;;;;;10.80;2.05;;;15.20;96.60;;;;;;5051296;28;20119;-49
2023/07/04 01:04:32;;;;;;;7.28;2.22;;;15.20;96.50;;;;;;5052494;28;20500;-48
2023/07/04 01:06:59;;;;;;;9.88;2.75;;;15.20;96.50;;;;;;5051519;28;20515;-45
2023/07/04 01:09:26;;;;;;;9.50;2.25;;;15.20;96.50;;;;;;5052571;28;20052;-52
2023/07/04 01:11:53;;;;;;;8.57;2.22;;;15.20;96.70;;;;;;5051542;28;20064;-52
2023/07/04 01:14:24;;;;;;;11.25;2.78;;;15.10;96.60;;;;;;5051784;28;20049;-45
2023/07/04 01:16:51;;;;;;;9.70;2.15;;;15.10;96.60;;;;;;5052642;28;20041;-52
2023/07/04 01:19:19;;;;;;;10.50;1.98;;;15.10;96.70;;;;;;5052848;28;20045;-44
2023/07/04 01:21:45;;;;;;;10.38;1.80;;;15.10;96.70;;;;;;5052476;28;20064;-47
2023/07/04 01:24:12;;;;;;;6.90;2.15;;;15.10;96.70;;;;;;5052333;28;20041;-48
2023/07/04 01:26:39;;;;;;;11.95;2.10;;;15.10;96.80;;;;;;5052547;28;20047;-48
2023/07/04 01:29:06;;;;;;;8.20;2.38;;;15.10;96.70;;;;;;5051371;28;20444;-50
2023/07/04 01:31:35;;;;;;;8.02;1.80;;;15.10;96.70;;;;;;5051148;28;20057;-50
2023/07/04 01:34:04;;;;;;;7.32;1.92;;;15.10;96.90;;;;;;5052452;28;20055;-48
2023/07/04 01:36:30;;;;;;;10.27;2.13;;;15.10;96.90;;;;;;5052360;28;20496;-49
2023/07/04 01:38:57;;;;;;;11.57;2.15;;;15.10;96.90;;;;;;5052487;28;20045;-47
2023/07/04 01:41:24;;;;;;;9.98;2.10;;;15.10;96.90;;;;;;5051203;28;20072;-51
2023/07/04 01:43:51;;;;;;;9.63;2.10;;;15.10;97.10;;;;;;5052221;28;20060;-51
2023/07/04 01:46:18;;;;;;;7.32;1.95;;;15.10;97.00;;;;;;5051935;28;20041;-47
2023/07/04 01:48:46;;;;;;;6.13;2.00;;;15.10;97.20;;;;;;5052167;28;20041;-50
2023/07/04 01:51:13;;;;;;;9.13;2.33;;;15.10;97.10;;;;;;5053100;28;20037;-47
2023/07/04 01:53:41;;;;;;;9.48;2.05;;;15.10;97.20;;;;;;5055875;28;20037;-49
2023/07/04 01:56:08;;;;;;;7.43;1.85;;;15.10;97.20;;;;;;5055997;28;20033;-48
2023/07/04 01:58:34;;;;;;;7.45;2.10;;;15.10;97.20;;;;;;5054649;28;20041;-49
2023/07/04 02:01:01;;;;;;;7.70;1.83;;;15.10;97.30;;;;;;5054417;28;20053;-44
2023/07/04 02:03:29;;;;;;;9.25;2.22;;;15.10;97.30;;;;;;5054072;28;20048;-44
2023/07/04 02:05:56;;;;;;;9.18;2.03;;;15.10;97.40;;;;;;5054157;28;20037;-43
2023/07/04 02:08:23;;;;;;;10.75;2.50;;;15.10;97.40;;;;;;5055496;28;20037;-45
2023/07/04 02:10:49;;;;;;;9.48;2.30;;;15.10;97.30;;;;;;5055751;28;20047;-46
2023/07/04 02:13:17;;;;;;;11.52;2.03;;;15.10;97.30;;;;;;5054257;28;20484;-47
2023/07/04 02:15:43;;;;;;;7.55;1.98;;;15.00;97.30;;;;;;5055614;28;20471;-46
2023/07/04 02:18:10;;;;;;;9.40;2.25;;;15.10;97.50;;;;;;5057273;28;20119;-47
2023/07/04 02:20:37;;;;;;;6.82;2.10;;;15.00;97.50;;;;;;5054041;28;20041;-47
2023/07/04 02:23:04;;;;;;;6.45;2.05;;;15.00;97.60;;;;;;5054150;28;20128;-45
2023/07/04 02:25:31;;;;;;;11.30;2.03;;;15.00;97.70;;;;;;5055324;28;20037;-50
2023/07/04 02:27:57;;;;;;;10.90;2.25;;;15.00;97.70;;;;;;5055470;28;20075;-46
2023/07/04 02:30:24;;;;;;;13.65;2.60;;;14.90;97.70;;;;;;5055136;28;20037;-47
2023/07/04 02:32:51;;;;;;;8.88;2.38;;;14.90;97.70;;;;;;5053790;28;20373;-50
2023/07/04 02:35:19;;;;;;;6.03;2.05;;;14.90;97.70;;;;;;5053925;28;20049;-48
2023/07/04 02:37:46;;;;;;;10.55;2.25;;;14.90;97.80;;;;;;5053611;28;20511;-46
2023/07/04 02:40:13;;;;;;;7.63;2.28;;;14.90;97.80;;;;;;5054958;28;20044;-47
2023/07/04 02:42:41;;;;;;;8.07;2.30;;;14.90;97.80;;;;;;5053189;28;20483;-45
2023/07/04 02:45:08;;;;;;;10.38;2.50;;;14.90;97.90;;;;;;5053440;28;20052;-48
2023/07/04 02:47:36;;;;;;;9.52;2.53;;;14.90;97.90;;;;;;5054753;28;20484;-45
2023/07/04 02:50:07;;;;;;;10.05;2.53;;;14.90;98.00;;;;;;5053611;28;20040;-45
2023/07/04 02:52:35;;;;;;;10.45;2.53;;;14.90;98.00;;;;;;5053376;28;20095;-46
2023/07/04 02:55:02;;;;;;;7.75;2.20;;;14.90;98.10;;;;;;5054759;28;20383;-44
2023/07/04 02:57:29;;;;;;;8.88;2.70;;;14.90;98.10;;;;;;5053406;28;20040;-47
2023/07/04 02:59:59;;;;;;;9.77;2.50;;;14.90;98.10;;;;;;5054689;28;20053;-47
2023/07/04 03:02:26;;;;;;;10.02;2.70;;;14.90;98.10;;;;;;5069372;28;20068;-44
2023/07/04 03:04:57;;;;;;;9.35;2.60;;;14.90;98.20;;;;;;5052406;28;20079;-43
2023/07/04 03:07:27;;;;;;;10.60;2.38;;;14.90;98.20;;;;;;5053262;28;20044;-47
2023/07/04 03:09:54;;;;;;;8.32;2.63;;;14.90;98.20;;;;;;5053283;28;20045;-45
2023/07/04 03:12:25;;;;;;;10.52;2.63;;;14.90;98.20;;;;;;5052859;28;20045;-49
2023/07/04 03:14:52;;;;;;;11.40;2.55;;;14.90;98.30;;;;;;5053035;28;20133;-45
2023/07/04 03:17:19;;;;;;;6.85;2.10;;;14.90;98.30;;;;;;5052686;28;20056;-44
2023/07/04 03:19:47;;;;;;;9.50;2.22;;;14.90;98.20;;;;;;5052867;28;20041;-48
2023/07/04 03:22:15;;;;;;;11.63;2.85;;;14.90;98.30;;;;;;5054208;28;20057;-47
2023/07/04 03:24:42;;;;;;;10.55;2.50;;;14.90;98.30;;;;;;5053987;28;20395;-46
2023/07/04 03:27:09;;;;;;;8.32;1.88;;;15.00;98.30;;;;;;5052858;28;20044;-49
2023/07/04 03:29:36;;;;;;;6.57;2.40;;;14.90;98.30;;;;;;5054194;28;20056;-48
2023/07/04 03:32:03;;;;;;;11.20;2.67;;;14.90;98.50;;;;;;5036482;28;20041;-44
2023/07/04 03:34:30;;;;;;;9.50;2.40;;;14.90;98.60;;;;;;5053878;28;20045;-49
2023/07/04 03:36:57;;;;;;;8.60;2.50;;;14.90;98.60;;;;;;5053992;28;20045;-43
2023/07/04 03:39:23;;;;;;;10.85;2.35;;;14.90;98.60;;;;;;5053736;28;20094;-45
2023/07/04 03:41:50;;;;;;;8.77;2.38;;;14.90;98.70;;;;;;5053909;28;20071;-45
2023/07/04 03:44:17;;;;;;;12.80;2.50;;;14.90;98.70;;;;;;5053576;28;20067;-46
2023/07/04 03:46:44;;;;;;;10.18;2.53;;;14.90;98.80;;;;;;5051953;28;20044;-44
2023/07/04 03:49:11;;;;;;;12.48;3.00;;;14.90;98.70;;;;;;5052633;28;20044;-43
2023/07/04 03:51:37;;;;;;;13.60;2.70;;;14.90;98.80;;;;;;5053612;28;20037;-46
2023/07/04 03:54:04;;;;;;;9.52;2.50;;;14.90;98.80;;;;;;5053447;28;20139;-44
2023/07/04 03:56:31;;;;;;;15.43;2.60;;;14.90;98.80;;;;;;5052193;28;20045;-51
2023/07/04 03:58:59;;;;;;;10.27;2.78;;;14.90;98.80;;;;;;5052537;28;20037;-44
2023/07/04 04:01:26;;;;;;;10.10;2.03;;;14.90;98.90;;;;;;5048327;28;20395;-51
2023/07/04 04:03:53;;;;;;;11.40;2.40;;;14.90;99.00;;;;;;5032280;28;20056;-49
2023/07/04 04:06:21;;;;;;;7.50;2.78;;;14.80;99.10;;;;;;5046979;28;20047;-45
2023/07/04 04:08:49;;;;;;;8.57;2.30;;;14.80;99.20;;;;;;5047013;28;20112;-47
2023/07/04 04:11:17;;;;;;;11.20;2.80;;;14.80;99.10;;;;;;5047044;28;20041;-47
2023/07/04 04:13:43;;;;;;;12.55;2.88;;;14.80;99.20;;;;;;5052450;28;20128;-45
2023/07/04 04:16:10;;;;;;;12.38;3.10;;;14.80;99.30;;;;;;5052781;28;20098;-48
2023/07/04 04:18:37;;;;;;;7.45;2.50;;;14.80;99.10;;;;;;5052654;28;20126;-47
2023/07/04 04:21:04;;;;;;;10.70;2.53;;;14.80;99.20;;;;;;5053571;28;20068;-47
2023/07/04 04:23:30;;;;;;;10.18;2.30;;;14.80;99.30;;;;;;5053229;28;20067;-45
2023/07/04 04:25:57;;;;;;;11.77;2.90;;;14.80;99.30;;;;;;5053294;28;20037;-49
2023/07/04 04:28:24;;;;;;;11.95;2.65;;;14.80;99.40;;;;;;5053379;28;20045;-47
2023/07/04 04:30:51;;;;;;;9.65;2.83;;;14.80;99.30;;;;;;5052204;28;20041;-49
2023/07/04 04:33:19;;;;;;;10.07;2.63;;;14.80;99.30;;;;;;5053227;28;20069;-45
2023/07/04 04:35:46;;;;;;;12.32;2.72;;;14.70;99.50;;;;;;5053389;28;20075;-47
2023/07/04 04:38:13;;;;;;;12.27;2.90;;;14.70;99.50;;;;;;5053239;28;20067;-47
2023/07/04 04:40:42;;;;;;;10.65;2.30;;;14.80;99.50;;;;;;5053277;28;20051;-45
2023/07/04 04:43:09;;;;;;;8.98;2.63;;;14.70;99.60;;;;;;5053418;28;20539;-45
2023/07/04 04:45:38;;;;;;;9.85;2.70;;;14.70;99.50;;;;;;5053614;28;20094;-47
2023/07/04 04:48:06;;;;;;;13.75;2.38;;;14.70;99.60;;;;;;5052993;28;20033;-47
2023/07/04 04:50:33;;;;;;;13.15;2.97;;;14.70;99.60;;;;;;5053500;28;20040;-47
2023/07/04 04:53:00;;;;;;;11.50;2.47;;;14.70;99.70;;;;;;5052880;28;20080;-46
2023/07/04 04:55:27;;;;;;;12.93;2.80;;;14.70;99.70;;;;;;5053117;28;20461;-44
2023/07/04 04:57:54;;;;;;;13.27;2.95;;;14.70;99.80;;;;;;5053141;28;20487;-46
2023/07/04 05:00:20;;;;;;;10.75;2.67;;;14.70;99.80;;;;;;5052935;28;20508;-45
2023/07/04 05:02:47;;;;;;;8.75;2.53;;;14.70;99.90;;;;;;5052769;28;20487;-51
2023/07/04 05:05:14;;;;;;;10.32;2.40;;;14.70;99.80;;;;;;5051130;28;20041;-50
2023/07/04 05:07:41;;;;;;;12.70;3.00;;;14.70;99.80;;;;;;5053019;28;20036;-49
2023/07/04 05:10:08;;;;;;;12.93;2.55;;;14.80;99.80;;;;;;5053021;28;20037;-50
2023/07/04 05:12:34;;;;;;;6.18;2.17;;;14.80;99.90;;;;;;5051576;28;20033;-46
2023/07/04 05:15:01;;;;;;;11.20;2.63;;;14.90;99.80;;;;;;5052705;28;20049;-51
2023/07/04 05:17:31;;;;;;;10.98;2.67;;;14.90;99.80;;;;;;5052962;28;20041;-47
2023/07/04 05:20:00;;;;;;;13.90;2.70;;;14.90;99.70;;;;;;5052861;28;20076;-47
2023/07/04 05:22:27;;;;;;;11.95;2.60;;;15.00;99.80;;;;;;5052777;28;20052;-46
2023/07/04 05:24:56;;;;;;;10.32;2.47;;;15.00;99.80;;;;;;5053320;28;20048;-51
2023/07/04 05:27:23;;;;;;;14.95;3.10;;;15.00;99.80;;;;;;5054457;28;20124;-46
2023/07/04 05:29:50;;;;;;;12.02;2.88;;;15.10;99.70;;;;;;5056083;28;20037;-44
2023/07/04 05:32:17;;;;;;;12.57;2.92;;;15.10;99.80;;;;;;5056898;28;20049;-44
2023/07/04 05:34:44;;;;;;;9.55;2.40;;;15.10;99.80;;;;;;5056332;28;20045;-47
2023/07/04 05:37:10;;;;;;;11.10;2.58;;;15.10;99.80;;;;;;5056366;28;20037;-45
2023/07/04 05:39:37;;;;;;;13.18;2.45;;;15.10;99.80;;;;;;5056304;28;20037;-45
2023/07/04 05:42:04;;;;;;;9.90;2.50;;;15.10;99.70;;;;;;5056438;28;20099;-48
2023/07/04 05:44:31;;;;;;;9.02;2.58;;;15.10;99.80;;;;;;5055399;28;20033;-48
2023/07/04 05:46:57;;;;;;;12.20;2.58;;;15.20;99.80;;;;;;5056377;28;20037;-48
2023/07/04 05:49:24;;;;;;;11.65;3.25;;;15.20;99.70;;;;;;5056194;28;20041;-48
2023/07/04 05:51:51;;;;;;;13.57;2.60;;;15.20;99.70;;;;;;5054702;28;20039;-49
2023/07/04 05:54:18;;;;;;;10.43;2.60;;;15.20;99.70;;;;;;5049883;28;20047;-45
2023/07/04 05:56:45;;;;;;;12.15;2.60;;;15.30;99.70;;;;;;5049488;28;20456;-46
2023/07/04 05:59:11;;;;;;;9.50;2.90;;;15.30;99.60;;;;;;5055906;28;20385;-50
2023/07/04 06:01:38;;;;;;;10.48;3.17;;;15.40;99.60;;;;;;5056443;28;20132;-51
2023/07/04 06:04:06;;;;;;;9.80;2.38;;;15.40;99.60;;;;;;5054782;28;20053;-45
2023/07/04 06:06:33;;;;;;;12.63;2.95;;;15.40;99.60;;;;;;5055702;28;20610;-44
2023/07/04 06:09:00;;;;;;;11.57;2.63;;;15.50;99.50;;;;;;5055465;28;20128;-45
2023/07/04 06:11:29;;;;;;;8.52;2.70;;;15.60;99.40;;;;;;5055173;28;20119;-44
2023/07/04 06:13:56;;;;;;;8.25;2.47;;;15.60;99.40;;;;;;5053869;28;20068;-45
2023/07/04 06:16:22;;;;;;;9.20;2.72;;;15.70;99.20;;;;;;5054494;28;20037;-45
2023/07/04 06:18:49;;;;;;;9.57;2.67;;;15.80;99.40;;;;;;5053823;28;20063;-45
2023/07/04 06:21:16;;;;;;;13.25;3.05;;;15.90;99.10;;;;;;5053557;28;20055;-47
2023/07/04 06:23:50;;;;;;;10.07;2.92;;;16.00;98.90;;;;;;5053215;28;20268;-48
2023/07/04 06:26:17;;;;;;;10.60;2.70;;;16.10;98.90;;;;;;5052595;28;20041;-45
2023/07/04 06:28:44;;;;;;;7.78;2.65;;;16.10;98.60;;;;;;5053338;28;20041;-47
2023/07/04 06:31:10;;;;;;;8.40;2.30;;;16.30;98.50;;;;;;5053622;28;20049;-45
2023/07/04 06:33:37;;;;;;;10.27;2.15;;;16.40;98.50;;;;;;5055239;28;20045;-50
2023/07/04 06:36:07;;;;;;;9.98;2.83;;;16.50;98.20;;;;;;5055506;28;20044;-48
2023/07/04 06:38:34;;;;;;;12.55;3.17;;;16.50;98.00;;;;;;5053909;28;20144;-51
2023/07/04 06:41:01;;;;;;;9.80;2.90;;;16.50;97.70;;;;;;5055111;28;20045;-46
2023/07/04 06:43:28;;;;;;;6.88;2.10;;;16.60;98.00;;;;;;5053708;28;20087;-50
2023/07/04 06:45:54;;;;;;;10.80;2.40;;;16.60;97.80;;;;;;5054641;28;20037;-51
2023/07/04 06:48:22;;;;;;;8.40;2.22;;;16.70;97.50;;;;;;5054987;28;20044;-48
2023/07/04 06:50:49;;;;;;;7.18;2.22;;;16.80;97.40;;;;;;5055049;28;20062;-45
2023/07/04 06:53:16;;;;;;;9.02;2.20;;;16.90;97.20;;;;;;5054742;28;20041;-47
2023/07/04 06:55:42;;;;;;;7.53;2.03;;;17.00;96.50;;;;;;5055006;28;20037;-49
2023/07/04 06:58:09;;;;;;;7.82;2.38;;;17.00;96.00;;;;;;5055158;28;20071;-46
2023/07/04 07:00:36;;;;;;;8.90;2.13;;;17.10;95.70;;;;;;5054748;28;20465;-49
2023/07/04 07:03:03;;;;;;;9.80;2.40;;;17.10;95.80;;;;;;5054773;28;20052;-46
2023/07/04 07:05:31;;;;;;;5.82;2.10;;;17.20;95.40;;;;;;5055057;28;20037;-45
2023/07/04 07:07:58;;;;;;;10.23;2.22;;;17.30;95.20;;;;;;5054648;28;20041;-46
2023/07/04 07:10:25;;;;;;;9.80;2.30;;;17.30;95.00;;;;;;5054718;28;20080;-48
2023/07/04 07:12:51;;;;;;;6.85;2.38;;;17.30;94.20;;;;;;5053964;28;20044;-48
2023/07/04 07:15:18;;;;;;;7.75;2.17;;;17.20;94.40;;;;;;5054752;28;20412;-46
2023/07/04 07:17:45;;;;;;;7.53;2.10;;;17.20;94.50;;;;;;5053440;28;20044;-46
2023/07/04 07:20:12;;;;;;;7.18;2.17;;;17.20;94.30;;;;;;5054502;28;20064;-46
2023/07/04 07:22:39;;;;;;;4.47;1.55;;;17.40;94.40;;;;;;5054307;28;20041;-46
2023/07/04 07:25:05;;;;;;;6.70;2.10;;;17.40;93.80;;;;;;5054331;28;20051;-44
2023/07/04 07:27:32;;;;;;;6.95;2.40;;;17.40;94.10;;;;;;5054197;28;20389;-44
2023/07/04 07:29:59;;;;;;;6.97;2.10;;;17.30;94.20;;;;;;5054304;28;20483;-46
2023/07/04 07:32:26;;;;;;;9.43;2.38;;;17.30;94.00;;;;;;5054044;28;20074;-45
2023/07/04 07:34:54;;;;;;;11.07;2.33;;;17.40;94.30;;;;;;5054034;28;20045;-46
2023/07/04 07:37:21;;;;;;;7.93;2.50;;;17.40;94.10;;;;;;5054165;28;20373;-44
2023/07/04 07:39:48;;;;;;;6.28;1.92;;;17.50;93.80;;;;;;5054476;28;20049;-45
2023/07/04 07:42:16;;;;;;;6.68;2.13;;;17.60;94.20;;;;;;5052662;28;20131;-49
2023/07/04 07:44:43;;;;;;;6.10;1.80;;;17.80;93.80;;;;;;5048186;28;20135;-46
2023/07/04 07:47:10;;;;;;;6.30;1.73;;;17.80;93.70;;;;;;5053801;28;20040;-49
2023/07/04 07:49:37;;;;;;;5.53;1.85;;;17.80;93.70;;;;;;5052892;28;20045;-48
2023/07/04 07:52:04;;;;;;;6.70;2.10;;;17.90;93.80;;;;;;5053820;28;20040;-45
2023/07/04 07:54:30;;;;;;;6.80;1.95;;;18.00;93.60;;;;;;5053891;28;20120;-48
2023/07/04 07:56:57;;;;;;;6.72;2.40;;;18.10;93.60;;;;;;5053618;28;20041;-51
2023/07/04 07:59:24;;;;;;;6.60;1.95;;;18.30;93.30;;;;;;5053003;28;20507;-46
2023/07/04 08:01:51;;;;;;;5.68;1.90;;;18.40;93.20;;;;;;5047324;28;20140;-48
2023/07/04 08:04:18;;;;;;;6.57;2.33;;;18.40;93.00;;;;;;5053465;28;20049;-48
2023/07/04 08:06:45;;;;;;;7.90;2.00;;;18.50;93.30;;;;;;5053559;28;20488;-46
2023/07/04 08:09:13;;;;;;;7.82;2.35;;;18.50;93.10;;;;;;5036136;28;20114;-48
2023/07/04 08:11:39;;;;;;;7.10;1.90;;;18.40;93.10;;;;;;5053462;28;20037;-47
2023/07/04 08:14:06;;;;;;;7.65;2.20;;;18.40;93.30;;;;;;5052701;28;20048;-48
2023/07/04 08:16:33;;;;;;;5.78;2.00;;;18.40;93.20;;;;;;5053260;28;20492;-45
2023/07/04 08:19:00;;;;;;;6.93;2.53;;;18.60;93.10;;;;;;5053679;28;20120;-46
2023/07/04 08:21:27;;;;;;;6.03;2.25;;;18.80;93.20;;;;;;5053425;28;20037;-47
2023/07/04 08:23:56;;;;;;;6.57;2.30;;;18.90;92.70;;;;;;5053246;28;20055;-51
2023/07/04 08:26:22;;;;;;;7.07;2.42;;;19.00;92.70;;;;;;5053307;28;20041;-47
2023/07/04 08:28:49;;;;;;;7.22;2.40;;;19.00;92.60;;;;;;5053335;28;20087;-46
2023/07/04 08:31:18;;;;;;;7.78;2.22;;;19.10;92.30;;;;;;5053124;28;20045;-47
2023/07/04 08:33:45;;;;;;;5.70;2.28;;;19.20;92.10;;;;;;5053298;28;20076;-48
2023/07/04 08:36:13;;;;;;;7.50;2.53;;;19.10;92.00;;;;;;5051523;28;20047;-46
2023/07/04 08:38:39;;;;;;;5.25;2.00;;;19.20;91.90;;;;;;5053376;28;20052;-47
2023/07/04 08:41:06;;;;;;;6.20;1.98;;;19.20;92.20;;;;;;5053297;28;20051;-48
2023/07/04 08:43:36;;;;;;;5.72;1.92;;;19.20;91.90;;;;;;5052648;28;20426;-47
2023/07/04 08:46:02;;;;;;;6.45;1.70;;;19.10;91.90;;;;;;5053151;28;20361;-45
2023/07/04 08:48:29;;;;;;;5.45;2.00;;;19.20;91.60;;;;;;5052539;28;20387;-50
2023/07/04 08:50:56;;;;;;;5.72;1.90;;;19.30;91.40;;;;;;5053363;28;20404;-49
2023/07/04 08:53:23;;;;;;;5.53;1.70;;;19.40;91.20;;;;;;5052888;28;20052;-50
2023/07/04 08:55:52;;;;;;;5.40;2.08;;;19.50;91.40;;;;;;5052009;28;20049;-50
2023/07/04 08:58:21;;;;;;;4.97;2.00;;;19.50;91.10;;;;;;5053150;28;20045;-52
2023/07/04 09:00:47;;;;;;;5.68;2.03;;;19.40;90.90;;;;;;5053528;28;20045;-51
2023/07/04 09:03:14;;;;;;;5.40;1.95;;;19.20;91.00;;;;;;5056737;28;20122;-48
2023/07/04 09:05:41;;;;;;;8.43;2.10;;;19.10;90.80;;;;;;5055442;28;20412;-50
2023/07/04 09:08:09;;;;;;;5.45;1.73;;;19.10;91.30;;;;;;5056932;28;20052;-48
2023/07/04 09:10:36;;;;;;;5.32;1.80;;;19.10;91.10;;;;;;5057120;28;20472;-45
2023/07/04 09:13:02;;;;;;;6.13;2.08;;;19.20;91.20;;;;;;5056725;28;20043;-52
2023/07/04 09:15:29;;;;;;;4.07;1.85;;;19.20;90.90;;;;;;5055394;28;20041;-50
2023/07/04 09:17:57;;;;;;;6.25;2.10;;;19.20;90.90;;;;;;5056770;28;20040;-47
2023/07/04 09:20:44;;;;;;;12.10;2.40;;;19.30;91.20;;;;;;5056854;28;20037;-50
2023/07/04 09:23:11;;;;;;;6.30;2.38;;;19.40;91.20;;;;;;5050294;28;20472;-52
2023/07/04 09:25:38;;;;;;;5.75;2.00;;;19.50;91.40;;;;;;5050160;28;20087;-54
2023/07/04 09:28:05;;;;;;;4.63;1.75;;;19.80;90.80;;;;;;5050026;28;20049;-46
2023/07/04 09:30:32;;;;;;;5.03;1.85;;;20.00;90.40;;;;;;5050179;28;20120;-49
2023/07/04 09:33:04;;;;;;;5.85;2.00;;;20.10;90.10;;;;;;5050509;28;20044;-46
2023/07/04 09:35:31;;;;;;;6.53;2.35;;;20.20;90.30;;;;;;5056397;28;20091;-53
2023/07/04 09:37:58;;;;;;;5.78;2.03;;;20.10;90.00;;;;;;5056189;28;20037;-48
2023/07/04 09:40:24;;;;;;;6.45;2.00;;;20.20;90.10;;;;;;5055126;28;20068;-45
2023/07/04 09:42:51;;;;;;;6.85;2.30;;;20.30;90.40;;;;;;5056454;28;20391;-47
2023/07/04 09:45:18;;;;;;;5.75;2.22;;;20.40;90.00;;;;;;5056084;28;20475;-45
2023/07/04 09:47:45;;;;;;;6.68;2.08;;;20.50;88.70;;;;;;5056242;28;20045;-48
2023/07/04 09:50:11;;;;;;;7.18;2.45;;;20.60;89.00;;;;;;5055051;28;20446;-46
2023/07/04 09:52:38;;;;;;;6.00;2.30;;;20.70;89.30;;;;;;5049669;28;20041;-45
2023/07/04 09:55:05;;;;;;;8.50;2.78;;;20.60;88.30;;;;;;5049592;28;20048;-47
2023/07/04 09:57:32;;;;;;;6.78;2.42;;;20.50;89.20;;;;;;5056067;28;20069;-46
2023/07/04 09:59:59;;;;;;;5.70;2.40;;;20.40;89.70;;;;;;5056120;28;20045;-45
2023/07/04 10:02:26;;;;;;;7.38;2.42;;;20.40;89.60;;;;;;5055823;28;20037;-46
2023/07/04 10:04:53;;;;;;;6.72;2.35;;;20.30;89.90;;;;;;5054979;28;20059;-47
2023/07/04 10:07:20;;;;;;;7.32;2.20;;;20.40;90.40;;;;;;5055488;28;20041;-46
2023/07/04 10:09:46;;;;;;;7.55;2.33;;;20.60;90.30;;;;;;5054508;28;20037;-47
2023/07/04 10:12:13;;;;;;;6.63;2.35;;;20.60;90.00;;;;;;5055207;28;20040;-49
2023/07/04 10:14:40;;;;;;;6.45;2.05;;;20.60;88.60;;;;;;5055688;28;20124;-46
2023/07/04 10:17:07;;;;;;;6.57;2.40;;;20.50;89.30;;;;;;5055530;28;20056;-47
2023/07/04 10:19:34;;;;;;;6.35;2.55;;;20.50;89.90;;;;;;5055546;28;20061;-50
2023/07/04 10:22:00;;;;;;;6.10;2.67;;;20.60;90.00;;;;;;5055518;28;20060;-48
2023/07/04 10:24:27;;;;;;;8.05;2.53;;;20.70;90.10;;;;;;5055518;28;20060;-45
2023/07/04 10:26:57;;;;;;;6.47;2.50;;;20.60;90.00;;;;;;5055336;28;20075;-45
2023/07/04 10:29:24;;;;;;;11.70;2.80;;;20.60;90.40;;;;;;5055560;28;20045;-47
2023/07/04 10:31:51;;;;;;;8.00;3.00;;;20.60;90.10;;;;;;5055360;28;20041;-46
2023/07/04 10:34:18;;;;;;;9.50;2.45;;;20.60;90.60;;;;;;5054997;28;20056;-44
2023/07/04 10:36:45;;;;;;;7.20;2.80;;;20.70;90.40;;;;;;5055428;28;20068;-46
2023/07/04 10:39:12;;;;;;;6.15;2.55;;;21.00;90.10;;;;;;5055424;28;20045;-48
2023/07/04 10:41:38;;;;;;;11.35;2.40;;;21.00;88.70;;;;;;5053830;28;20044;-48
2023/07/04 10:44:08;;;;;;;6.68;2.85;;;21.00;88.70;;;;;;5054371;28;20056;-48
2023/07/04 10:46:35;;;;;;;7.22;2.85;;;21.10;88.20;;;;;;5053425;28;20080;-49
2023/07/04 10:49:01;;;;;;;9.88;3.10;;;21.30;88.60;;;;;;5054509;28;20107;-49
2023/07/04 10:51:28;;;;;;;7.82;2.72;;;21.30;87.50;;;;;;5055123;28;20032;-45
2023/07/04 10:53:55;;;;;;;10.32;3.00;;;21.20;88.40;;;;;;5054801;28;20053;-45
2023/07/04 10:56:22;;;;;;;6.82;2.78;;;21.30;88.90;;;;;;5054948;28;20502;-46
2023/07/04 10:58:49;;;;;;;6.68;3.00;;;21.30;88.90;;;;;;5054858;28;20408;-45
2023/07/04 11:01:15;;;;;;;5.40;2.75;;;21.20;88.70;;;;;;5054776;28;20045;-45
2023/07/04 11:03:43;;;;;;;6.40;3.00;;;21.10;89.30;;;;;;5054532;28;20546;-49
2023/07/04 11:06:11;;;;;;;8.43;3.10;;;21.00;90.00;;;;;;5054859;28;20060;-47
2023/07/04 11:08:39;;;;;;;10.20;2.85;;;21.00;90.30;;;;;;5054766;28;20070;-46
2023/07/04 11:11:05;;;;;;;6.28;2.85;;;20.90;90.30;;;;;;5055018;28;20045;-46
2023/07/04 11:13:32;;;;;;;6.68;3.20;;;20.90;90.30;;;;;;5054513;28;20143;-48
2023/07/04 11:15:59;;;;;;;8.48;3.45;;;20.80;90.60;;;;;;5053971;28;20044;-45
2023/07/04 11:18:27;;;;;;;6.50;3.10;;;20.70;90.80;;;;;;5054544;28;20491;-49
2023/07/04 11:20:53;;;;;;;9.63;3.45;;;20.70;91.50;;;;;;5054468;28;20048;-45
2023/07/04 11:23:20;;;;;;;8.68;3.60;;;20.60;92.10;;;;;;5054158;28;20041;-46
2023/07/04 11:25:47;;;;;;;10.10;3.40;;;20.50;93.00;;;;;;5054132;28;20428;-47
2023/07/04 11:28:17;;;;;;;10.43;3.53;;;20.40;92.80;;;;;;5054197;28;20447;-48
2023/07/04 11:30:45;;;;;;;8.65;3.78;;;20.30;93.90;;;;;;5053301;28;20088;-48
2023/07/04 11:33:12;;;;;;;11.02;3.47;;;20.20;94.90;;;;;;5053126;28;20037;-49
2023/07/04 11:35:41;;;;;;;7.75;3.30;;;20.10;95.60;;;;;;5053083;28;20399;-51
2023/07/04 11:38:08;;;;;;;7.00;3.33;;;20.10;96.40;;;;;;5053980;28;20119;-46
2023/07/04 11:40:36;;;;;;;8.82;3.80;;;20.10;96.30;;;;;;5053939;28;20052;-50
2023/07/04 11:43:03;;;;;;;9.30;3.47;;;20.10;96.90;;;;;;5053531;28;20037;-45
2023/07/04 11:45:30;;;;;;;10.80;3.55;;;20.10;95.60;;;;;;5054045;28;20079;-45
2023/07/04 11:47:58;;;;;;;8.77;3.65;;;20.30;96.70;;;;;;5053807;28;20037;-47
2023/07/04 11:50:24;;;;;;;9.25;3.60;;;20.40;97.00;;;;;;5053353;28;20049;-48
2023/07/04 11:52:51;;;;;;;7.20;3.67;;;20.50;95.70;;;;;;5053765;28;20037;-48
2023/07/04 11:55:18;;;;;;;9.73;3.58;;;20.50;95.20;;;;;;5052802;28;20419;-45
2023/07/04 11:57:45;;;;;;;10.05;3.97;;;20.50;95.40;;;;;;5051703;28;20484;-45
2023/07/04 12:00:12;;;;;;;9.40;3.80;;;20.40;95.40;;;;;;5053990;28;20492;-50
2023/07/04 12:02:39;;;;;;;12.68;4.22;;;20.30;95.30;;;;;;5052114;28;20103;-45
2023/07/04 12:05:06;;;;;;;9.48;4.30;;;20.10;96.80;;;;;;5053486;28;20132;-51
2023/07/04 12:07:33;;;;;;;12.93;4.50;;;19.80;97.30;;;;;;5053644;28;20048;-47
2023/07/04 12:10:00;;;;;;;9.43;3.85;;;19.50;97.70;;;;;;5053607;28;20052;-47
2023/07/04 12:12:30;;;;;;;8.27;3.72;;;19.20;98.20;;;;;;5053441;28;20037;-47
2023/07/04 12:14:56;;;;;;;12.15;4.32;;;19.00;99.10;;;;;;5052815;28;20032;-48
2023/07/04 12:17:24;;;;;;;13.10;4.25;;;18.80;99.90;;;;;;5053744;28;20053;-47
2023/07/04 12:19:51;;;;;;;11.80;3.90;;;18.70;99.90;;;;;;5053353;28;20041;-50
2023/07/04 12:22:17;;;;;;;9.10;3.97;;;18.50;99.90;;;;;;5053403;28;20102;-49
2023/07/04 12:24:44;;;;;;;9.80;4.40;;;18.40;99.90;;;;;;5051986;28;20061;-46
2023/07/04 12:27:11;;;;;;;8.45;3.72;;;18.40;99.90;;;;;;5053163;28;20037;-46
2023/07/04 12:29:38;;;;;;;10.15;4.03;;;18.60;99.90;;;;;;5053468;28;20469;-48
2023/07/04 12:32:08;;;;;;;10.43;4.20;;;18.70;99.00;;;;;;5052920;28;20029;-49
2023/07/04 12:34:34;;;;;;;9.48;4.13;;;18.90;99.90;;;;;;5053099;28;20037;-46
2023/07/04 12:37:27;;;;;;;7.38;3.67;;;19.10;99.90;;;;;;5051747;28;20049;-48
2023/07/04 12:39:54;;;;;;;10.82;3.90;;;19.40;99.80;;;;;;5053179;28;20086;-48
2023/07/04 12:42:22;;;;;;;8.90;3.75;;;19.60;99.70;;;;;;5052937;28;20037;-52